Welcome to Des Moines Iowa Weather. I am an independent private personal weather station on the Northwest Side of Des Moines, Iowa. Just East of Windsor Heights and just West of Glendale . This site is also mobile friendly.

There are no active watches, warnings or advisories


Visit our other weather sites:

Historical Data

Weather Station Setup



Weather Underground History page Text

Daily Summary for August 9, 2017 Units:  English    Metric   Both
« Previous Day
Next Day »
Daily Weekly Monthly Yearly Custom
  High: Low: Average:
Temperature: 84.8 °F 59.1 °F 72.1 °F
Dew Point: 63.0 °F 54.0 °F 58.5 °F
Humidity: 86 % 36 % 65 %
Wind Speed: 7.0 mph 0.0 mph 0.4 mph
Wind Gust: 10.0 mph - -
Wind:- - South
Pressure: 30.11 in 29.96 in -
Precipitation: 0.00 in    
Historical Graphs
 
 
Tabular Data for August 9, 2017
Time Temperature Dew Point Pressure Wind Wind Speed Wind Gust Humidity Rainfall Rate (Hourly)
00:07 68.3 °F 56.0 °F 30.10 in Calm     64 % 0.00 in
00:22 67.9 °F 56.0 °F 30.11 in Calm     65 % 0.00 in
00:37 67.2 °F 55.0 °F 30.11 in Calm     66 % 0.00 in
00:52 66.5 °F 56.0 °F 30.10 in Calm     69 % 0.00 in
01:07 65.7 °F 56.0 °F 30.10 in Calm     70 % 0.00 in
01:22 64.9 °F 56.0 °F 30.10 in Calm     72 % 0.00 in
01:37 64.0 °F 56.0 °F 30.10 in Calm     74 % 0.00 in
01:52 63.3 °F 56.0 °F 30.10 in Calm     76 % 0.00 in
02:07 62.8 °F 56.0 °F 30.10 in Calm     77 % 0.00 in
02:22 62.4 °F 55.0 °F 30.10 in Calm     78 % 0.00 in
02:37 62.0 °F 55.0 °F 30.09 in Calm     79 % 0.00 in
02:52 61.7 °F 56.0 °F 30.09 in Calm     80 % 0.00 in
03:07 61.5 °F 55.0 °F 30.09 in Calm     80 % 0.00 in
03:22 61.3 °F 55.0 °F 30.09 in Calm     80 % 0.00 in
03:37 61.3 °F 55.0 °F 30.09 in Calm     80 % 0.00 in
03:52 61.1 °F 55.0 °F 30.09 in Calm     80 % 0.00 in
04:07 60.9 °F 55.0 °F 30.09 in Calm     80 % 0.00 in
04:22 60.6 °F 54.0 °F 30.09 in Calm     80 % 0.00 in
04:37 60.2 °F 54.0 °F 30.09 in Calm     81 % 0.00 in
04:52 60.0 °F 54.0 °F 30.10 in Calm     81 % 0.00 in
05:07 59.8 °F 55.0 °F 30.10 in Calm     83 % 0.00 in
05:22 59.6 °F 54.0 °F 30.10 in Calm     83 % 0.00 in
05:37 59.4 °F 54.0 °F 30.10 in Calm     83 % 0.00 in
05:52 59.3 °F 55.0 °F 30.10 in Calm     84 % 0.00 in
06:07 59.1 °F 54.0 °F 30.10 in Calm     84 % 0.00 in
06:23 59.1 °F 54.0 °F 30.10 in Calm     84 % 0.00 in
06:37 59.1 °F 55.0 °F 30.10 in Calm     85 % 0.00 in
06:52 59.2 °F 55.0 °F 30.11 in Calm     85 % 0.00 in
07:07 59.3 °F 55.0 °F 30.11 in Calm     85 % 0.00 in
07:23 59.7 °F 56.0 °F 30.11 in Calm   1.0 mph 86 % 0.00 in
07:37 60.2 °F 56.0 °F 30.10 in Calm   5.0 mph 85 % 0.00 in
07:52 60.8 °F 56.0 °F 30.09 in Calm   3.0 mph 84 % 0.00 in
08:08 61.5 °F 56.0 °F 30.09 in Calm     83 % 0.00 in
08:23 62.4 °F 57.0 °F 30.09 in Calm   1.0 mph 82 % 0.00 in
08:38 63.7 °F 58.0 °F 30.09 in Calm   2.0 mph 81 % 0.00 in
08:53 64.9 °F 58.0 °F 30.09 in Calm   3.0 mph 79 % 0.00 in
09:08 66.1 °F 58.0 °F 30.09 in Calm   4.0 mph 76 % 0.00 in
09:23 67.5 °F 59.0 °F 30.08 in SSW 4.0 mph 4.0 mph 75 % 0.00 in
09:38 68.9 °F 60.0 °F 30.08 in Calm   3.0 mph 72 % 0.00 in
09:53 70.1 °F 59.0 °F 30.08 in SSW 2.0 mph 5.0 mph 69 % 0.00 in
10:08 71.2 °F 60.0 °F 30.08 in SW 1.0 mph 4.0 mph 68 % 0.00 in
10:23 72.1 °F 61.0 °F 30.08 in Calm   3.0 mph 67 % 0.00 in
10:38 73.3 °F 61.0 °F 30.08 in South 3.0 mph 6.0 mph 65 % 0.00 in
10:53 74.4 °F 60.0 °F 30.07 in Calm   4.0 mph 62 % 0.00 in
11:08 75.7 °F 60.0 °F 30.07 in Calm   4.0 mph 58 % 0.00 in
11:23 77.6 °F 60.0 °F 30.07 in Calm   6.0 mph 54 % 0.00 in
11:38 79.5 °F 59.0 °F 30.06 in Calm   4.0 mph 50 % 0.00 in
11:53 81.0 °F 59.0 °F 30.06 in Calm   6.0 mph 48 % 0.00 in
12:09 82.3 °F 61.0 °F 30.05 in SSW 4.0 mph 4.0 mph 48 % 0.00 in
12:24 83.1 °F 58.0 °F 30.05 in Calm   7.0 mph 43 % 0.00 in
12:39 83.4 °F 58.0 °F 30.05 in SSE 7.0 mph 7.0 mph 42 % 0.00 in
12:54 83.7 °F 55.0 °F 30.04 in WNW 2.0 mph 6.0 mph 38 % 0.00 in
13:09 84.0 °F 56.0 °F 30.04 in Calm   4.0 mph 38 % 0.00 in
13:24 84.1 °F 57.0 °F 30.03 in Calm   6.0 mph 39 % 0.00 in
13:39 84.8 °F 56.0 °F 30.03 in Calm   4.0 mph 38 % 0.00 in
13:54 84.7 °F 55.0 °F 30.03 in South 2.0 mph 6.0 mph 36 % 0.00 in
14:09 84.2 °F 58.0 °F 30.03 in Calm   4.0 mph 41 % 0.00 in
14:24 83.2 °F 56.0 °F 30.02 in SSW 2.0 mph 4.0 mph 40 % 0.00 in
14:39 84.3 °F 58.0 °F 30.02 in Calm   3.0 mph 41 % 0.00 in
14:54 84.4 °F 60.0 °F 30.01 in East 4.0 mph 10.0 mph 44 % 0.00 in
15:09 82.7 °F 59.0 °F 30.01 in Calm   3.0 mph 44 % 0.00 in
15:24 82.6 °F 59.0 °F 30.00 in Calm   3.0 mph 45 % 0.00 in
15:39 84.8 °F 62.0 °F 30.00 in ESE 1.0 mph 3.0 mph 47 % 0.00 in
15:54 83.4 °F 59.0 °F 30.00 in Calm   5.0 mph 44 % 0.00 in
16:09 83.3 °F 61.0 °F 29.99 in NW 3.0 mph 4.0 mph 47 % 0.00 in
16:24 83.0 °F 59.0 °F 29.99 in Calm   6.0 mph 44 % 0.00 in
16:39 83.1 °F 61.0 °F 29.99 in Calm   3.0 mph 47 % 0.00 in
16:54 83.1 °F 60.0 °F 29.98 in Calm   3.0 mph 46 % 0.00 in
17:09 83.8 °F 61.0 °F 29.98 in Calm   2.0 mph 47 % 0.00 in
17:24 84.0 °F 61.0 °F 29.98 in Calm   6.0 mph 46 % 0.00 in
17:39 83.8 °F 62.0 °F 29.98 in Calm   2.0 mph 48 % 0.00 in
17:54 83.3 °F 63.0 °F 29.98 in Calm   4.0 mph 50 % 0.00 in
18:09 82.5 °F 63.0 °F 29.98 in NE 2.0 mph 3.0 mph 51 % 0.00 in
18:24 81.5 °F 62.0 °F 29.97 in SSE 4.0 mph 4.0 mph 52 % 0.00 in
18:39 80.8 °F 61.0 °F 29.96 in Calm   1.0 mph 52 % 0.00 in
18:55 80.2 °F 61.0 °F 29.97 in Calm   1.0 mph 52 % 0.00 in
19:09 79.8 °F 61.0 °F 29.97 in Calm   1.0 mph 53 % 0.00 in
19:24 79.4 °F 61.0 °F 29.97 in Calm   2.0 mph 54 % 0.00 in
19:39 78.8 °F 61.0 °F 29.97 in Calm   3.0 mph 55 % 0.00 in
19:54 78.5 °F 61.0 °F 29.97 in Calm     56 % 0.00 in
20:09 78.0 °F 62.0 °F 29.98 in Calm     58 % 0.00 in
20:24 77.3 °F 62.0 °F 29.97 in Calm     60 % 0.00 in
20:39 76.6 °F 62.0 °F 29.97 in Calm     60 % 0.00 in
20:54 76.0 °F 62.0 °F 29.98 in Calm     62 % 0.00 in
21:09 75.2 °F 62.0 °F 29.98 in Calm     64 % 0.00 in
21:24 74.5 °F 62.0 °F 29.98 in Calm     66 % 0.00 in
21:40 73.8 °F 62.0 °F 29.98 in Calm     67 % 0.00 in
21:54 73.0 °F 63.0 °F 29.98 in Calm     70 % 0.00 in
22:09 72.2 °F 63.0 °F 29.98 in Calm     73 % 0.00 in
22:26 71.6 °F 63.0 °F 29.98 in Calm     75 % 0.00 in
22:39 70.9 °F 63.0 °F 29.98 in Calm     76 % 0.00 in
22:54 70.2 °F 63.0 °F 29.97 in Calm     77 % 0.00 in
23:09 69.6 °F 62.0 °F 29.98 in Calm     77 % 0.00 in
23:24 69.0 °F 62.0 °F 29.98 in Calm     78 % 0.00 in
23:39 68.5 °F 62.0 °F 29.99 in Calm     79 % 0.00 in
23:55 68.0 °F 62.0 °F 29.99 in Calm     81 % 0.00 in
Des Moines Weather and Climate
Compliments of Weather Underground - 3 mb

Script developed by  Jim McMurry - jmcmurry@mwt.net Adapted for the template by  Wim van der Kuil - Leuven-Template.eu

You find our weather info also at:

Weather Underground

Equipment we use:

Weather-station
Davis VP2 Plus

Weather-program
Davis Weatherlink.Com

Weather-server
iMac (Retina 4K, 21.5-inch, Late 2015)

Provider
Hostmonster.com

Davis VP2 Plus

Davis Weatherlink.Com

iMac (Retina 4K, 21.5-inch, Late 2015)

Hostmonster.com